Time;durP1;ratioP1;P1;durP2;ratioP2;P2;SDS_P1;SDS_P2;PMS_P1;PMS_P2;Temp;Humidity;BMP_temperature;BMP_pressure;BME280_temperature;BME280_humidity;BME280_pressure;Samples;Min_cycle;Max_cycle;Signal;HPM_P1;HPM_P2
2023/05/10 00:00:44;;;;;;;19.17;11.93;;;;;;;;;;5136936;27;20403;-75
2023/05/10 00:03:10;;;;;;;21.58;11.95;;;;;;;;;;5155581;27;20087;-81
2023/05/10 00:05:36;;;;;;;19.67;11.15;;;;;;;;;;5108541;27;20087;-82
2023/05/10 00:08:03;;;;;;;19.33;11.38;;;;;;;;;;5131562;27;20112;-81
2023/05/10 00:10:29;;;;;;;19.83;11.35;;;;;;;;;;5136400;27;20034;-84
2023/05/10 00:12:55;;;;;;;17.25;9.55;;;;;;;;;;5119546;27;20043;-82
2023/05/10 00:15:21;;;;;;;16.08;9.77;;;;;;;;;;5133821;27;20038;-79
2023/05/10 00:17:47;;;;;;;18.30;10.10;;;;;;;;;;5143646;27;20039;-79
2023/05/10 00:20:13;;;;;;;17.85;9.82;;;;;;;;;;5129341;27;20087;-80
2023/05/10 00:22:39;;;;;;;16.83;10.00;;;;;;;;;;5119070;27;20046;-73
2023/05/10 00:25:06;;;;;;;16.65;9.95;;;;;;;;;;5136280;27;20034;-75
2023/05/10 00:27:32;;;;;;;15.55;9.57;;;;;;;;;;5140997;27;20042;-74
2023/05/10 00:29:58;;;;;;;16.02;9.32;;;;;;;;;;5136211;27;20046;-74
2023/05/10 00:32:24;;;;;;;15.85;8.98;;;;;;;;;;5135788;27;20038;-75
2023/05/10 00:34:50;;;;;;;13.27;8.45;;;;;;;;;;5135924;27;20065;-74
2023/05/10 00:37:16;;;;;;;15.40;8.90;;;;;;;;;;5135046;27;20043;-75
2023/05/10 00:39:42;;;;;;;15.02;8.27;;;;;;;;;;5152542;27;20464;-74
2023/05/10 00:42:08;;;;;;;14.50;8.40;;;;;;;;;;5142513;27;20035;-73
2023/05/10 00:44:34;;;;;;;17.20;9.52;;;;;;;;;;5133241;27;20027;-74
2023/05/10 00:47:01;;;;;;;18.05;9.40;;;;;;;;;;5134256;27;20055;-79
2023/05/10 00:49:27;;;;;;;16.55;9.80;;;;;;;;;;5135709;27;20035;-79
2023/05/10 00:51:53;;;;;;;17.10;10.73;;;;;;;;;;5106803;27;20039;-80
2023/05/10 00:54:19;;;;;;;16.33;9.32;;;;;;;;;;5137994;27;20031;-81
2023/05/10 00:56:48;;;;;;;16.48;9.93;;;;;;;;;;5143826;27;20103;-80
2023/05/10 00:59:16;;;;;;;17.80;9.98;;;;;;;;;;5151963;27;20099;-81
2023/05/10 01:01:42;;;;;;;17.58;9.35;;;;;;;;;;5116885;27;20042;-80
2023/05/10 01:04:09;;;;;;;15.40;9.43;;;;;;;;;;5123405;27;20030;-80
2023/05/10 01:06:36;;;;;;;15.02;8.95;;;;;;;;;;5135644;27;20043;-80
2023/05/10 01:09:02;;;;;;;13.75;7.95;;;;;;;;;;5144550;27;20118;-79
2023/05/10 01:11:28;;;;;;;14.25;8.43;;;;;;;;;;5135344;27;20380;-80
2023/05/10 01:13:58;;;;;;;16.40;9.07;;;;;;;;;;5150080;27;20091;-80
2023/05/10 01:16:25;;;;;;;14.35;8.68;;;;;;;;;;5104739;28;20126;-81
2023/05/10 01:18:57;;;;;;;14.70;9.10;;;;;;;;;;5127009;27;20072;-81
2023/05/10 01:21:42;;;;;;;14.65;8.35;;;;;;;;;;5142861;27;20031;-81
2023/05/10 01:24:32;;;;;;;15.10;8.30;;;;;;;;;;5152487;27;20075;-81
2023/05/10 01:27:17;;;;;;;12.13;8.20;;;;;;;;;;5122397;28;20459;-76
2023/05/10 01:29:55;;;;;;;12.63;7.97;;;;;;;;;;5133582;27;20483;-75
2023/05/10 01:32:27;;;;;;;11.40;6.93;;;;;;;;;;5116555;27;20043;-81
2023/05/10 01:34:59;;;;;;;11.70;7.95;;;;;;;;;;5145774;27;20043;-75
2023/05/10 01:37:52;;;;;;;11.82;8.00;;;;;;;;;;5098609;27;20096;-74
2023/05/10 01:40:23;;;;;;;12.75;8.20;;;;;;;;;;5141161;27;20129;-81
2023/05/10 01:42:53;;;;;;;11.35;7.97;;;;;;;;;;5129181;28;20046;-74
2023/05/10 01:45:19;;;;;;;12.25;8.30;;;;;;;;;;5133479;27;20079;-82
2023/05/10 01:47:59;;;;;;;11.43;7.82;;;;;;;;;;5120476;27;20059;-82
2023/05/10 01:50:28;;;;;;;10.75;8.05;;;;;;;;;;5107021;27;20035;-82
2023/05/10 01:52:55;;;;;;;11.85;8.82;;;;;;;;;;5154644;27;20077;-81
2023/05/10 01:55:23;;;;;;;12.55;8.77;;;;;;;;;;5158348;27;20042;-81
2023/05/10 01:57:52;;;;;;;12.40;9.43;;;;;;;;;;5138481;27;20046;-77
2023/05/10 02:00:19;;;;;;;14.50;10.10;;;;;;;;;;5114902;27;20165;-76
2023/05/10 02:02:46;;;;;;;12.52;9.48;;;;;;;;;;5137106;27;20077;-76
2023/05/10 02:05:13;;;;;;;14.27;9.80;;;;;;;;;;5137980;27;20114;-79
2023/05/10 02:07:39;;;;;;;16.25;9.65;;;;;;;;;;5138092;27;20171;-78
2023/05/10 02:10:07;;;;;;;15.88;8.88;;;;;;;;;;5115517;27;20078;-77
2023/05/10 02:12:36;;;;;;;14.68;9.93;;;;;;;;;;5157469;27;20045;-76
2023/05/10 02:15:03;;;;;;;13.45;9.32;;;;;;;;;;5135154;27;20386;-74
2023/05/10 02:17:30;;;;;;;12.05;9.18;;;;;;;;;;5121763;27;20474;-76
2023/05/10 02:19:57;;;;;;;15.23;10.88;;;;;;;;;;5134016;27;20042;-75
2023/05/10 02:22:23;;;;;;;15.70;10.27;;;;;;;;;;5138453;27;20030;-76
2023/05/10 02:24:50;;;;;;;15.90;10.52;;;;;;;;;;5138849;27;20386;-77
2023/05/10 02:27:17;;;;;;;15.82;10.38;;;;;;;;;;5138404;27;20077;-76
2023/05/10 02:29:44;;;;;;;15.15;10.77;;;;;;;;;;5128790;27;20506;-75
2023/05/10 02:32:11;;;;;;;17.08;10.88;;;;;;;;;;5134804;27;20043;-75
2023/05/10 02:34:37;;;;;;;16.42;11.10;;;;;;;;;;5145707;27;20033;-75
2023/05/10 02:37:03;;;;;;;17.85;11.32;;;;;;;;;;5138353;27;20043;-74
2023/05/10 02:39:30;;;;;;;17.50;11.43;;;;;;;;;;5121713;27;20449;-74
2023/05/10 02:41:57;;;;;;;16.17;10.65;;;;;;;;;;5154121;27;20043;-74
2023/05/10 02:44:24;;;;;;;15.40;10.65;;;;;;;;;;5138056;27;20455;-75
2023/05/10 02:46:51;;;;;;;16.55;9.50;;;;;;;;;;5138070;27;20058;-77
2023/05/10 02:49:17;;;;;;;15.57;9.98;;;;;;;;;;5153594;27;20490;-74
2023/05/10 02:51:47;;;;;;;14.85;9.75;;;;;;;;;;5137387;27;20046;-73
2023/05/10 02:54:17;;;;;;;14.70;9.25;;;;;;;;;;5131971;27;20050;-75
2023/05/10 02:56:47;;;;;;;13.50;8.90;;;;;;;;;;5117180;27;20039;-75
2023/05/10 02:59:13;;;;;;;15.35;9.57;;;;;;;;;;5133386;27;20043;-74
2023/05/10 03:01:39;;;;;;;15.20;9.55;;;;;;;;;;5137051;27;20386;-74
2023/05/10 03:04:06;;;;;;;16.90;9.05;;;;;;;;;;5127523;27;20049;-75
2023/05/10 03:06:32;;;;;;;14.13;9.05;;;;;;;;;;5137753;27;20046;-74
2023/05/10 03:08:58;;;;;;;13.40;9.10;;;;;;;;;;5117474;27;20053;-74
2023/05/10 03:11:45;;;;;;;13.25;8.95;;;;;;;;;;5136274;27;20078;-75
2023/05/10 03:14:11;;;;;;;15.43;8.77;;;;;;;;;;5120721;27;20058;-75
2023/05/10 03:16:43;;;;;;;13.85;9.02;;;;;;;;;;5135553;27;20406;-75
2023/05/10 03:19:23;;;;;;;11.85;8.55;;;;;;;;;;5143599;27;20070;-74
2023/05/10 03:21:51;;;;;;;13.65;8.90;;;;;;;;;;5148972;27;20095;-80
2023/05/10 03:24:19;;;;;;;14.45;8.38;;;;;;;;;;5136792;27;20039;-83
2023/05/10 03:26:45;;;;;;;15.10;8.40;;;;;;;;;;5131343;27;20049;-75
2023/05/10 03:29:15;;;;;;;12.27;8.15;;;;;;;;;;5099991;27;20043;-75
2023/05/10 03:31:41;;;;;;;15.10;7.55;;;;;;;;;;5126750;27;20129;-74
2023/05/10 03:34:08;;;;;;;14.98;8.48;;;;;;;;;;5116299;27;20487;-74
2023/05/10 03:36:34;;;;;;;13.10;8.00;;;;;;;;;;5137253;27;20042;-83
2023/05/10 03:39:00;;;;;;;15.02;8.57;;;;;;;;;;5137574;27;20479;-82
2023/05/10 03:41:26;;;;;;;11.75;8.05;;;;;;;;;;5156202;27;20042;-81
2023/05/10 03:43:52;;;;;;;11.40;7.05;;;;;;;;;;5121619;27;20046;-79
2023/05/10 03:46:18;;;;;;;11.52;6.70;;;;;;;;;;5160414;27;20107;-74
2023/05/10 03:48:44;;;;;;;13.48;7.80;;;;;;;;;;5137406;27;20132;-77
2023/05/10 03:51:11;;;;;;;11.30;6.95;;;;;;;;;;5105650;27;20079;-75
2023/05/10 03:53:37;;;;;;;15.45;7.50;;;;;;;;;;5155900;27;20095;-76
2023/05/10 03:56:03;;;;;;;13.43;7.35;;;;;;;;;;5132945;27;20070;-78
2023/05/10 03:58:29;;;;;;;11.77;6.78;;;;;;;;;;5155774;27;20103;-75
2023/05/10 04:00:55;;;;;;;14.52;7.40;;;;;;;;;;5107327;27;20395;-76
2023/05/10 04:03:22;;;;;;;12.88;7.43;;;;;;;;;;5131917;27;20039;-76
2023/05/10 04:05:48;;;;;;;16.00;7.72;;;;;;;;;;5101164;27;20479;-75
2023/05/10 04:08:16;;;;;;;14.88;8.05;;;;;;;;;;5150161;27;20091;-75
2023/05/10 04:10:42;;;;;;;11.48;7.60;;;;;;;;;;5154887;27;20093;-75
2023/05/10 04:13:08;;;;;;;14.48;8.02;;;;;;;;;;5135429;27;20039;-75
2023/05/10 04:15:35;;;;;;;12.95;7.95;;;;;;;;;;5130729;27;20027;-76
2023/05/10 04:18:01;;;;;;;13.27;7.75;;;;;;;;;;5149775;27;20043;-75
2023/05/10 04:20:27;;;;;;;14.27;8.00;;;;;;;;;;5134701;27;20042;-74
2023/05/10 04:22:53;;;;;;;17.35;8.43;;;;;;;;;;5125173;27;20039;-75
2023/05/10 04:25:19;;;;;;;14.85;8.05;;;;;;;;;;5119469;27;20071;-75
2023/05/10 04:27:45;;;;;;;14.30;8.20;;;;;;;;;;5133691;27;20034;-81
2023/05/10 04:30:12;;;;;;;14.77;7.97;;;;;;;;;;5101932;27;20047;-79
2023/05/10 04:32:38;;;;;;;14.60;7.47;;;;;;;;;;5155313;27;20491;-81
2023/05/10 04:35:04;;;;;;;13.75;8.00;;;;;;;;;;5125691;27;20045;-80
2023/05/10 04:37:30;;;;;;;13.18;7.55;;;;;;;;;;5129446;27;20043;-81
2023/05/10 04:39:56;;;;;;;14.68;7.60;;;;;;;;;;5127157;27;20057;-82
2023/05/10 04:42:22;;;;;;;12.98;7.63;;;;;;;;;;5138632;27;20043;-81
2023/05/10 04:44:48;;;;;;;14.70;8.10;;;;;;;;;;5124550;27;20039;-81
2023/05/10 04:47:16;;;;;;;15.25;8.98;;;;;;;;;;5152809;27;20069;-81
2023/05/10 04:49:42;;;;;;;15.68;8.38;;;;;;;;;;5116144;27;20078;-81
2023/05/10 04:52:08;;;;;;;15.68;9.25;;;;;;;;;;5112291;27;20046;-81
2023/05/10 04:54:34;;;;;;;16.83;9.38;;;;;;;;;;5140322;27;20513;-81
2023/05/10 04:57:00;;;;;;;18.15;9.43;;;;;;;;;;5132321;27;20166;-80
2023/05/10 04:59:26;;;;;;;18.75;10.23;;;;;;;;;;5135939;27;20035;-81
2023/05/10 05:01:52;;;;;;;16.55;9.95;;;;;;;;;;5139912;27;20605;-81
2023/05/10 05:04:18;;;;;;;19.30;10.25;;;;;;;;;;5136454;27;20058;-81
2023/05/10 05:06:44;;;;;;;21.38;10.43;;;;;;;;;;5118530;27;20067;-74
2023/05/10 05:09:11;;;;;;;19.13;9.65;;;;;;;;;;5097915;28;20054;-76
2023/05/10 05:11:37;;;;;;;20.88;10.48;;;;;;;;;;5131120;27;20049;-76
2023/05/10 05:14:03;;;;;;;21.52;10.20;;;;;;;;;;5154225;27;20039;-76
2023/05/10 05:16:31;;;;;;;19.17;9.93;;;;;;;;;;5129340;27;20037;-76
2023/05/10 05:18:57;;;;;;;19.77;9.77;;;;;;;;;;5115299;27;20096;-75
2023/05/10 05:21:23;;;;;;;19.23;9.98;;;;;;;;;;5135398;27;20038;-75
2023/05/10 05:23:50;;;;;;;19.27;10.20;;;;;;;;;;5138298;27;20031;-77
2023/05/10 05:26:16;;;;;;;19.35;9.68;;;;;;;;;;5148092;27;20047;-74
2023/05/10 05:28:42;;;;;;;18.38;10.35;;;;;;;;;;5139775;27;20046;-75
2023/05/10 05:31:08;;;;;;;20.60;9.45;;;;;;;;;;5132129;27;20043;-76
2023/05/10 05:33:35;;;;;;;15.90;9.10;;;;;;;;;;5139232;27;20051;-77
2023/05/10 05:36:01;;;;;;;14.40;9.20;;;;;;;;;;5126314;27;20394;-77
2023/05/10 05:38:28;;;;;;;16.55;9.70;;;;;;;;;;5138830;27;20501;-76
2023/05/10 05:40:54;;;;;;;15.95;9.13;;;;;;;;;;5131039;27;20031;-80
2023/05/10 05:43:20;;;;;;;18.00;9.25;;;;;;;;;;5130093;27;20030;-81
2023/05/10 05:45:46;;;;;;;16.25;9.32;;;;;;;;;;5098163;28;20051;-81
2023/05/10 05:48:12;;;;;;;15.23;8.75;;;;;;;;;;5119010;27;20063;-76
2023/05/10 05:50:38;;;;;;;17.35;9.02;;;;;;;;;;5128982;27;20043;-76
2023/05/10 05:53:04;;;;;;;15.48;8.95;;;;;;;;;;5105230;27;20111;-76
2023/05/10 05:55:31;;;;;;;14.05;8.65;;;;;;;;;;5137342;27;20039;-75
2023/05/10 05:57:57;;;;;;;19.30;8.60;;;;;;;;;;5120477;27;20039;-76
2023/05/10 06:00:24;;;;;;;15.00;8.30;;;;;;;;;;5134173;27;20440;-82
2023/05/10 06:02:50;;;;;;;14.07;8.65;;;;;;;;;;5118862;27;20121;-80
2023/05/10 06:05:16;;;;;;;13.18;8.23;;;;;;;;;;5115005;28;20042;-78
2023/05/10 06:07:42;;;;;;;12.60;7.82;;;;;;;;;;5115298;28;20510;-80
2023/05/10 06:10:09;;;;;;;13.88;8.40;;;;;;;;;;5132525;27;20391;-79
2023/05/10 06:12:35;;;;;;;15.93;7.93;;;;;;;;;;5126133;27;20453;-81
2023/05/10 06:15:02;;;;;;;18.67;8.82;;;;;;;;;;5118933;27;20122;-80
2023/05/10 06:17:28;;;;;;;13.52;8.20;;;;;;;;;;5123252;27;20396;-80
2023/05/10 06:19:54;;;;;;;13.98;8.05;;;;;;;;;;5127593;27;20074;-80
2023/05/10 06:22:22;;;;;;;12.57;7.75;;;;;;;;;;5118334;27;20031;-80
2023/05/10 06:24:48;;;;;;;11.23;6.93;;;;;;;;;;5114995;28;20070;-79
2023/05/10 06:27:14;;;;;;;13.50;6.80;;;;;;;;;;5128879;27;20036;-80
2023/05/10 06:29:41;;;;;;;12.90;6.82;;;;;;;;;;5124479;27;20512;-77
2023/05/10 06:32:07;;;;;;;12.70;6.20;;;;;;;;;;5131584;27;20134;-76
2023/05/10 06:34:33;;;;;;;12.73;6.55;;;;;;;;;;5123420;27;20038;-76
2023/05/10 06:36:59;;;;;;;13.50;7.22;;;;;;;;;;5116192;27;20040;-79
2023/05/10 06:39:25;;;;;;;14.23;6.63;;;;;;;;;;5121396;27;20471;-80
2023/05/10 06:41:51;;;;;;;12.10;6.90;;;;;;;;;;5114001;27;20091;-80
2023/05/10 06:44:17;;;;;;;15.50;7.20;;;;;;;;;;5130004;27;20039;-80
2023/05/10 06:46:44;;;;;;;11.68;6.32;;;;;;;;;;5117707;27;20066;-78
2023/05/10 06:49:10;;;;;;;11.10;6.63;;;;;;;;;;5120239;27;20087;-76
2023/05/10 06:51:36;;;;;;;11.80;6.30;;;;;;;;;;5095227;27;20038;-77
2023/05/10 06:54:02;;;;;;;14.32;7.53;;;;;;;;;;5134870;27;20046;-75
2023/05/10 06:56:28;;;;;;;14.10;7.60;;;;;;;;;;5119351;27;20043;-77
2023/05/10 06:58:55;;;;;;;15.40;7.60;;;;;;;;;;5131670;27;20383;-82
2023/05/10 07:01:21;;;;;;;14.88;7.90;;;;;;;;;;5129737;27;20406;-80
2023/05/10 07:03:47;;;;;;;16.27;7.80;;;;;;;;;;5122060;27;20047;-81
2023/05/10 07:06:13;;;;;;;12.23;7.72;;;;;;;;;;5135937;27;20031;-82
2023/05/10 07:08:40;;;;;;;13.23;7.78;;;;;;;;;;5135227;27;20559;-76
2023/05/10 07:11:07;;;;;;;12.80;7.47;;;;;;;;;;5129612;27;20031;-82
2023/05/10 07:13:33;;;;;;;15.45;7.68;;;;;;;;;;5128938;27;20042;-82
2023/05/10 07:16:00;;;;;;;12.57;7.47;;;;;;;;;;5134807;27;20054;-82
2023/05/10 07:18:26;;;;;;;14.43;8.15;;;;;;;;;;5135484;27;20041;-75
2023/05/10 07:20:52;;;;;;;13.05;8.02;;;;;;;;;;5125058;27;20474;-76
2023/05/10 07:23:19;;;;;;;12.80;8.55;;;;;;;;;;5101058;28;20072;-76
2023/05/10 07:25:49;;;;;;;12.75;8.32;;;;;;;;;;5113533;27;20122;-76
2023/05/10 07:28:16;;;;;;;13.68;8.73;;;;;;;;;;5116861;27;20043;-82
2023/05/10 07:30:42;;;;;;;16.52;8.27;;;;;;;;;;5132308;27;20051;-80
2023/05/10 07:33:08;;;;;;;16.73;9.23;;;;;;;;;;5131389;27;20088;-78
2023/05/10 07:35:35;;;;;;;15.95;9.18;;;;;;;;;;5133679;27;20066;-78
2023/05/10 07:38:01;;;;;;;14.70;8.30;;;;;;;;;;5122842;27;20164;-81
2023/05/10 07:40:27;;;;;;;15.68;9.25;;;;;;;;;;5133395;27;20482;-76
2023/05/10 07:42:53;;;;;;;13.75;8.50;;;;;;;;;;5134769;27;20510;-76
2023/05/10 07:45:19;;;;;;;13.15;8.32;;;;;;;;;;5121809;27;20038;-77
2023/05/10 07:47:45;;;;;;;15.77;7.97;;;;;;;;;;5149840;27;20511;-74
2023/05/10 07:50:12;;;;;;;17.63;10.20;;;;;;;;;;5128359;27;20061;-83
2023/05/10 07:52:38;;;;;;;16.27;9.93;;;;;;;;;;5148600;27;20038;-77
2023/05/10 07:55:04;;;;;;;18.20;10.68;;;;;;;;;;5136378;27;20034;-81
2023/05/10 07:57:30;;;;;;;22.05;11.82;;;;;;;;;;5128149;27;20043;-80
2023/05/10 07:59:56;;;;;;;21.05;12.45;;;;;;;;;;5135251;27;20483;-85
2023/05/10 08:02:23;;;;;;;21.75;11.68;;;;;;;;;;5110081;27;20039;-81
2023/05/10 08:04:49;;;;;;;22.50;12.45;;;;;;;;;;5119721;27;20395;-82
2023/05/10 08:07:15;;;;;;;18.60;11.55;;;;;;;;;;5124556;27;20073;-83
2023/05/10 08:09:41;;;;;;;19.88;11.35;;;;;;;;;;5124332;27;20099;-78
2023/05/10 08:12:07;;;;;;;20.92;11.88;;;;;;;;;;5102044;27;20039;-78
2023/05/10 08:14:33;;;;;;;21.88;11.43;;;;;;;;;;5116380;27;20042;-77
2023/05/10 08:16:59;;;;;;;15.50;10.20;;;;;;;;;;5155316;27;20039;-77
2023/05/10 08:19:25;;;;;;;16.85;10.55;;;;;;;;;;5149162;27;21531;-76
2023/05/10 08:21:53;;;;;;;16.08;10.10;;;;;;;;;;5119755;27;20042;-81
2023/05/10 08:24:19;;;;;;;13.27;9.63;;;;;;;;;;5119159;27;20043;-86
2023/05/10 08:26:45;;;;;;;16.27;9.55;;;;;;;;;;5119366;27;20038;-86
2023/05/10 08:29:11;;;;;;;13.57;9.13;;;;;;;;;;5135412;27;20125;-80
2023/05/10 08:31:37;;;;;;;12.65;7.97;;;;;;;;;;5102430;27;20126;-84
2023/05/10 08:34:03;;;;;;;11.95;8.23;;;;;;;;;;5129338;27;20395;-83
2023/05/10 08:36:29;;;;;;;11.75;7.55;;;;;;;;;;5135830;27;20085;-82
2023/05/10 08:38:55;;;;;;;13.32;7.78;;;;;;;;;;5125802;27;20035;-82
2023/05/10 08:41:23;;;;;;;12.18;7.28;;;;;;;;;;5121569;27;20479;-84
2023/05/10 08:43:50;;;;;;;12.60;6.82;;;;;;;;;;5136688;27;20387;-84
2023/05/10 08:46:17;;;;;;;10.38;6.72;;;;;;;;;;5154347;27;20054;-81
2023/05/10 08:48:47;;;;;;;11.20;6.78;;;;;;;;;;5136304;27;20051;-86
2023/05/10 08:51:14;;;;;;;11.43;6.50;;;;;;;;;;5110890;27;20384;-80
2023/05/10 08:53:41;;;;;;;8.05;5.70;;;;;;;;;;5148479;27;20043;-82
2023/05/10 08:56:07;;;;;;;11.07;5.95;;;;;;;;;;5123117;27;20039;-78
2023/05/10 08:58:33;;;;;;;12.10;5.70;;;;;;;;;;5134092;27;20125;-77
2023/05/10 09:01:00;;;;;;;8.10;5.20;;;;;;;;;;5154269;27;20478;-85
2023/05/10 09:03:26;;;;;;;8.05;5.32;;;;;;;;;;5146710;27;20110;-78
2023/05/10 09:05:52;;;;;;;8.00;5.28;;;;;;;;;;5135613;27;20389;-78
2023/05/10 09:08:21;;;;;;;9.35;5.63;;;;;;;;;;5132973;27;20034;-81
2023/05/10 09:10:48;;;;;;;9.45;5.70;;;;;;;;;;5142275;27;20068;-79
2023/05/10 09:13:18;;;;;;;7.88;5.57;;;;;;;;;;5135039;27;20088;-77
2023/05/10 09:15:44;;;;;;;11.00;6.30;;;;;;;;;;5135432;27;20049;-79
2023/05/10 09:18:10;;;;;;;9.55;6.07;;;;;;;;;;5148866;27;20047;-78
2023/05/10 09:20:37;;;;;;;12.50;6.30;;;;;;;;;;5135464;27;20449;-79
2023/05/10 09:23:03;;;;;;;14.25;8.05;;;;;;;;;;5135249;27;20045;-76
2023/05/10 09:25:29;;;;;;;14.68;7.40;;;;;;;;;;5118196;27;20035;-80
2023/05/10 09:27:55;;;;;;;12.95;6.38;;;;;;;;;;5134944;27;20043;-79
2023/05/10 09:30:25;;;;;;;12.52;7.07;;;;;;;;;;5130429;27;20034;-80
2023/05/10 09:32:51;;;;;;;13.68;7.75;;;;;;;;;;5150610;27;20125;-79
2023/05/10 09:35:19;;;;;;;15.93;8.45;;;;;;;;;;5130142;27;20039;-80
2023/05/10 09:37:56;;;;;;;16.63;9.20;;;;;;;;;;5135302;27;20047;-80
2023/05/10 09:40:26;;;;;;;14.05;8.95;;;;;;;;;;5141084;27;20042;-76
2023/05/10 09:42:56;;;;;;;12.88;8.30;;;;;;;;;;5147463;27;20069;-78
2023/05/10 09:45:23;;;;;;;18.13;8.70;;;;;;;;;;5134406;27;20090;-80
2023/05/10 09:47:50;;;;;;;14.95;8.68;;;;;;;;;;5135219;27;20054;-77
2023/05/10 09:50:16;;;;;;;13.07;8.68;;;;;;;;;;5139355;27;20399;-79
2023/05/10 09:52:57;;;;;;;14.98;8.68;;;;;;;;;;5116322;27;20034;-79
2023/05/10 09:55:24;;;;;;;15.02;7.95;;;;;;;;;;5145497;27;20034;-81
2023/05/10 09:58:00;;;;;;;13.20;8.15;;;;;;;;;;5122839;27;20049;-80
2023/05/10 10:00:27;;;;;;;12.05;8.18;;;;;;;;;;5118409;27;20083;-80
2023/05/10 10:02:57;;;;;;;12.48;8.20;;;;;;;;;;5121957;28;20035;-78
2023/05/10 10:05:30;;;;;;;13.00;8.73;;;;;;;;;;5133765;27;20083;-77
2023/05/10 10:07:57;;;;;;;13.50;8.75;;;;;;;;;;5137965;27;20492;-79
2023/05/10 10:10:24;;;;;;;12.57;8.20;;;;;;;;;;5138981;27;20035;-78
2023/05/10 10:12:50;;;;;;;11.05;6.97;;;;;;;;;;5138988;27;20126;-79
2023/05/10 10:15:16;;;;;;;9.98;6.70;;;;;;;;;;5132526;27;20039;-79
2023/05/10 10:17:43;;;;;;;10.43;6.60;;;;;;;;;;5121366;27;20043;-77
2023/05/10 10:20:10;;;;;;;9.32;6.43;;;;;;;;;;5134380;27;20042;-79
2023/05/10 10:22:37;;;;;;;10.50;6.38;;;;;;;;;;5130583;27;20043;-78
2023/05/10 10:25:04;;;;;;;10.48;6.38;;;;;;;;;;5132293;27;20042;-80
2023/05/10 10:27:49;;;;;;;9.95;5.93;;;;;;;;;;5124935;27;20058;-79
2023/05/10 10:30:16;;;;;;;7.75;5.07;;;;;;;;;;5138596;27;20046;-81
2023/05/10 10:33:01;;;;;;;8.05;5.70;;;;;;;;;;5138595;27;20053;-79
2023/05/10 10:35:28;;;;;;;10.13;5.70;;;;;;;;;;5132552;27;20050;-81
2023/05/10 10:37:54;;;;;;;10.32;5.90;;;;;;;;;;5142791;27;20530;-78
2023/05/10 10:40:30;;;;;;;9.05;5.45;;;;;;;;;;5142406;27;20046;-80
2023/05/10 10:42:57;;;;;;;10.93;6.35;;;;;;;;;;5141466;27;20039;-79
2023/05/10 10:45:24;;;;;;;11.75;6.63;;;;;;;;;;5118861;27;20118;-80
2023/05/10 10:47:54;;;;;;;15.23;8.40;;;;;;;;;;5132406;27;20066;-81
2023/05/10 10:50:20;;;;;;;13.27;8.20;;;;;;;;;;5135029;27;20070;-81
2023/05/10 10:52:49;;;;;;;11.07;7.03;;;;;;;;;;5151825;27;20102;-76
2023/05/10 10:55:19;;;;;;;12.55;8.18;;;;;;;;;;5113320;27;20043;-80
2023/05/10 10:57:49;;;;;;;12.70;7.65;;;;;;;;;;5153026;27;20071;-83
2023/05/10 11:00:20;;;;;;;14.77;8.48;;;;;;;;;;5142618;27;20113;-83
2023/05/10 11:02:48;;;;;;;14.32;9.15;;;;;;;;;;5137859;27;20046;-77
2023/05/10 11:05:36;;;;;;;16.98;10.20;;;;;;;;;;5137020;27;20037;-81
2023/05/10 11:08:10;;;;;;;17.60;10.40;;;;;;;;;;5114550;27;20086;-78
2023/05/10 11:10:36;;;;;;;14.98;9.80;;;;;;;;;;5130402;27;20049;-79
2023/05/10 11:13:07;;;;;;;15.77;10.25;;;;;;;;;;5131269;27;20038;-79
2023/05/10 11:15:33;;;;;;;15.23;9.93;;;;;;;;;;5121148;27;20050;-79
2023/05/10 11:17:59;;;;;;;17.13;10.13;;;;;;;;;;5129945;27;20038;-79
2023/05/10 11:20:33;;;;;;;15.57;8.90;;;;;;;;;;5137399;27;20047;-78
2023/05/10 11:23:12;;;;;;;17.73;9.45;;;;;;;;;;5121977;27;20513;-78
2023/05/10 11:25:45;;;;;;;13.63;9.07;;;;;;;;;;5120612;27;20078;-82
2023/05/10 11:28:12;;;;;;;16.80;9.63;;;;;;;;;;5137734;27;20513;-83
2023/05/10 11:30:42;;;;;;;16.30;9.35;;;;;;;;;;5137439;27;20042;-81
2023/05/10 11:33:09;;;;;;;18.05;9.63;;;;;;;;;;5106536;27;20089;-80
2023/05/10 11:35:39;;;;;;;19.08;10.77;;;;;;;;;;5128786;27;20081;-79
2023/05/10 11:38:12;;;;;;;16.20;9.68;;;;;;;;;;5117939;27;20463;-79
2023/05/10 11:40:38;;;;;;;16.85;9.35;;;;;;;;;;5137229;27;20054;-80
2023/05/10 11:43:05;;;;;;;16.73;10.00;;;;;;;;;;5155903;27;20080;-81
2023/05/10 11:45:35;;;;;;;13.93;8.85;;;;;;;;;;5139237;27;20431;-81
2023/05/10 11:48:01;;;;;;;14.57;9.35;;;;;;;;;;5137037;27;20111;-83
2023/05/10 11:50:27;;;;;;;14.68;9.60;;;;;;;;;;5137205;27;20081;-72
2023/05/10 11:52:58;;;;;;;12.93;8.13;;;;;;;;;;5128041;27;20047;-70
2023/05/10 11:55:24;;;;;;;13.43;9.02;;;;;;;;;;5147076;27;20113;-71
2023/05/10 11:57:54;;;;;;;13.50;8.65;;;;;;;;;;5126400;27;20053;-83
2023/05/10 12:00:21;;;;;;;14.18;8.75;;;;;;;;;;5148541;27;20066;-78
2023/05/10 12:02:47;;;;;;;12.07;8.15;;;;;;;;;;5139255;27;20042;-78
2023/05/10 12:05:14;;;;;;;17.88;9.30;;;;;;;;;;5134367;27;20034;-79
2023/05/10 12:07:40;;;;;;;13.45;8.70;;;;;;;;;;5131396;27;20038;-78
2023/05/10 12:10:10;;;;;;;12.57;8.50;;;;;;;;;;5155643;27;20138;-78
2023/05/10 12:12:44;;;;;;;14.52;8.80;;;;;;;;;;5136621;27;20057;-79
2023/05/10 12:15:13;;;;;;;13.48;8.48;;;;;;;;;;5126594;27;20503;-78
2023/05/10 12:17:42;;;;;;;14.25;9.65;;;;;;;;;;5131845;27;20130;-82
2023/05/10 12:20:15;;;;;;;13.65;8.75;;;;;;;;;;5136649;27;20039;-82
2023/05/10 12:22:41;;;;;;;17.30;10.20;;;;;;;;;;5137307;27;20409;-81
2023/05/10 12:25:09;;;;;;;15.10;9.98;;;;;;;;;;5136263;27;20041;-78
2023/05/10 12:27:35;;;;;;;106.28;16.20;;;;;;;;;;5128429;27;20118;-76
2023/05/10 12:30:02;;;;;;;16.38;9.90;;;;;;;;;;5136348;27;20494;-77
2023/05/10 12:32:41;;;;;;;18.42;9.80;;;;;;;;;;5109416;27;20387;-78
2023/05/10 12:35:08;;;;;;;14.30;8.52;;;;;;;;;;5136983;27;20491;-78
2023/05/10 12:37:38;;;;;;;13.93;8.90;;;;;;;;;;5127790;27;20081;-78
2023/05/10 12:40:06;;;;;;;15.38;9.15;;;;;;;;;;5123999;27;20044;-77
2023/05/10 12:42:32;;;;;;;14.05;8.65;;;;;;;;;;5155136;27;20499;-78
2023/05/10 12:44:58;;;;;;;16.67;8.75;;;;;;;;;;5137629;27;20035;-78
2023/05/10 12:47:24;;;;;;;14.55;9.32;;;;;;;;;;5129573;27;20050;-77
2023/05/10 12:49:51;;;;;;;16.88;9.90;;;;;;;;;;5119311;27;20051;-80
2023/05/10 12:52:17;;;;;;;13.23;8.57;;;;;;;;;;5125871;27;20047;-81
2023/05/10 12:54:43;;;;;;;15.65;9.68;;;;;;;;;;5128638;27;20122;-81
2023/05/10 12:57:10;;;;;;;15.43;10.15;;;;;;;;;;5135711;27;20098;-79
2023/05/10 12:59:36;;;;;;;13.85;9.23;;;;;;;;;;5105591;27;20065;-78
2023/05/10 13:02:02;;;;;;;15.15;9.80;;;;;;;;;;5127004;27;20156;-77
2023/05/10 13:04:28;;;;;;;14.38;9.98;;;;;;;;;;5128026;27;20364;-76
2023/05/10 13:06:58;;;;;;;14.00;9.55;;;;;;;;;;5116655;27;20122;-77
2023/05/10 13:09:25;;;;;;;16.33;9.55;;;;;;;;;;5125562;27;20047;-79
2023/05/10 13:11:53;;;;;;;12.88;9.10;;;;;;;;;;5128976;27;20491;-79
2023/05/10 13:14:20;;;;;;;13.18;8.23;;;;;;;;;;5097795;28;20071;-81
2023/05/10 13:16:46;;;;;;;11.13;7.57;;;;;;;;;;5116502;27;20181;-76
2023/05/10 13:19:13;;;;;;;10.35;6.45;;;;;;;;;;5117289;28;20115;-78
2023/05/10 13:21:40;;;;;;;9.70;5.93;;;;;;;;;;5126236;28;20423;-72
2023/05/10 13:24:06;;;;;;;10.93;5.85;;;;;;;;;;5134681;28;20074;-77
2023/05/10 13:26:33;;;;;;;8.82;6.00;;;;;;;;;;5123482;28;20043;-75
2023/05/10 13:28:59;;;;;;;11.68;6.10;;;;;;;;;;5140171;28;20541;-78
2023/05/10 13:31:25;;;;;;;7.95;4.72;;;;;;;;;;5132778;28;20043;-78
2023/05/10 13:33:51;;;;;;;11.30;5.68;;;;;;;;;;5131539;28;20054;-77
2023/05/10 13:36:17;;;;;;;13.27;5.85;;;;;;;;;;5133250;28;20038;-77
2023/05/10 13:38:43;;;;;;;10.93;5.75;;;;;;;;;;5115663;28;20092;-79
2023/05/10 13:41:10;;;;;;;8.52;5.40;;;;;;;;;;5131855;27;20043;-81
2023/05/10 13:43:36;;;;;;;10.82;5.32;;;;;;;;;;5131921;27;20503;-79
2023/05/10 13:46:03;;;;;;;13.35;5.00;;;;;;;;;;5123016;27;20055;-80
2023/05/10 13:48:29;;;;;;;9.10;5.10;;;;;;;;;;5135487;27;20054;-80
2023/05/10 13:50:55;;;;;;;6.93;4.63;;;;;;;;;;5145372;27;20042;-80
2023/05/10 13:53:21;;;;;;;7.22;4.40;;;;;;;;;;5125710;27;20046;-80
2023/05/10 13:55:48;;;;;;;8.30;4.57;;;;;;;;;;5115596;27;20039;-79
2023/05/10 13:58:14;;;;;;;8.13;4.50;;;;;;;;;;5151427;27;20091;-78
2023/05/10 14:00:40;;;;;;;7.32;3.88;;;;;;;;;;5122643;27;20035;-78
2023/05/10 14:03:08;;;;;;;7.40;3.67;;;;;;;;;;5123521;27;20039;-78
2023/05/10 14:05:34;;;;;;;9.80;3.95;;;;;;;;;;5139821;27;20031;-77
2023/05/10 14:08:01;;;;;;;6.95;4.45;;;;;;;;;;5139415;27;20047;-79
2023/05/10 14:10:27;;;;;;;9.13;4.72;;;;;;;;;;5158014;27;20034;-80
2023/05/10 14:12:53;;;;;;;7.82;4.60;;;;;;;;;;5135744;27;20039;-80
2023/05/10 14:15:19;;;;;;;7.70;4.00;;;;;;;;;;5123873;27;20047;-80
2023/05/10 14:17:45;;;;;;;5.18;3.50;;;;;;;;;;5129343;27;20049;-79
2023/05/10 14:20:11;;;;;;;7.10;3.70;;;;;;;;;;5104884;27;20443;-78
2023/05/10 14:22:37;;;;;;;8.15;4.05;;;;;;;;;;5142308;27;20486;-78
2023/05/10 14:25:04;;;;;;;6.47;3.70;;;;;;;;;;5110746;27;20175;-79
2023/05/10 14:27:30;;;;;;;7.47;3.60;;;;;;;;;;5124799;27;20114;-80
2023/05/10 14:29:56;;;;;;;4.97;3.40;;;;;;;;;;5144177;27;20393;-77